sensor_id;sensor_type;location;lat;lon;timestamp;P1;durP1;ratioP1;P2;durP2;ratioP2
23728;SDS011;12045;60.214;24.724;2023-05-07T00:00:22;1.10;;;1.00;;
23728;SDS011;12045;60.214;24.724;2023-05-07T00:02:50;2.10;;;1.23;;
23728;SDS011;12045;60.214;24.724;2023-05-07T00:05:19;1.70;;;1.37;;
23728;SDS011;12045;60.214;24.724;2023-05-07T00:07:46;2.67;;;1.27;;
23728;SDS011;12045;60.214;24.724;2023-05-07T00:10:14;1.90;;;1.43;;
23728;SDS011;12045;60.214;24.724;2023-05-07T00:12:42;1.90;;;1.30;;
23728;SDS011;12045;60.214;24.724;2023-05-07T00:15:09;2.13;;;1.40;;
23728;SDS011;12045;60.214;24.724;2023-05-07T00:17:38;6.10;;;1.60;;
23728;SDS011;12045;60.214;24.724;2023-05-07T00:20:06;2.43;;;1.43;;
23728;SDS011;12045;60.214;24.724;2023-05-07T00:22:34;2.37;;;1.60;;
23728;SDS011;12045;60.214;24.724;2023-05-07T00:25:02;2.63;;;1.57;;
23728;SDS011;12045;60.214;24.724;2023-05-07T00:27:30;3.30;;;1.50;;
23728;SDS011;12045;60.214;24.724;2023-05-07T00:29:57;1.70;;;1.33;;
23728;SDS011;12045;60.214;24.724;2023-05-07T00:32:25;2.93;;;1.30;;
23728;SDS011;12045;60.214;24.724;2023-05-07T00:34:52;1.40;;;1.30;;
23728;SDS011;12045;60.214;24.724;2023-05-07T00:37:20;3.70;;;1.70;;
23728;SDS011;12045;60.214;24.724;2023-05-07T00:39:47;2.50;;;1.60;;
23728;SDS011;12045;60.214;24.724;2023-05-07T00:42:15;1.23;;;1.10;;
23728;SDS011;12045;60.214;24.724;2023-05-07T00:44:42;1.73;;;1.60;;
23728;SDS011;12045;60.214;24.724;2023-05-07T00:47:10;3.70;;;1.47;;
23728;SDS011;12045;60.214;24.724;2023-05-07T00:49:38;2.67;;;1.70;;
23728;SDS011;12045;60.214;24.724;2023-05-07T00:52:13;1.50;;;1.40;;
23728;SDS011;12045;60.214;24.724;2023-05-07T00:54:42;3.13;;;1.70;;
23728;SDS011;12045;60.214;24.724;2023-05-07T00:57:10;2.07;;;1.70;;
23728;SDS011;12045;60.214;24.724;2023-05-07T00:59:40;3.50;;;1.60;;
23728;SDS011;12045;60.214;24.724;2023-05-07T01:02:08;2.37;;;1.43;;
23728;SDS011;12045;60.214;24.724;2023-05-07T01:04:36;3.30;;;1.80;;
23728;SDS011;12045;60.214;24.724;2023-05-07T01:07:04;3.80;;;1.70;;
23728;SDS011;12045;60.214;24.724;2023-05-07T01:09:32;3.43;;;1.33;;
23728;SDS011;12045;60.214;24.724;2023-05-07T01:12:02;1.93;;;1.50;;
23728;SDS011;12045;60.214;24.724;2023-05-07T01:14:30;2.73;;;1.27;;
23728;SDS011;12045;60.214;24.724;2023-05-07T01:16:59;1.90;;;1.53;;
23728;SDS011;12045;60.214;24.724;2023-05-07T01:19:28;1.63;;;1.30;;
23728;SDS011;12045;60.214;24.724;2023-05-07T01:21:59;2.07;;;1.60;;
23728;SDS011;12045;60.214;24.724;2023-05-07T01:24:31;3.47;;;1.40;;
23728;SDS011;12045;60.214;24.724;2023-05-07T01:26:59;2.00;;;1.50;;
23728;SDS011;12045;60.214;24.724;2023-05-07T01:29:28;2.97;;;1.63;;
23728;SDS011;12045;60.214;24.724;2023-05-07T01:31:59;2.77;;;1.87;;
23728;SDS011;12045;60.214;24.724;2023-05-07T01:34:28;2.07;;;1.40;;
23728;SDS011;12045;60.214;24.724;2023-05-07T01:36:59;2.10;;;1.60;;
23728;SDS011;12045;60.214;24.724;2023-05-07T01:39:28;2.67;;;1.80;;
23728;SDS011;12045;60.214;24.724;2023-05-07T01:41:57;2.23;;;1.60;;
23728;SDS011;12045;60.214;24.724;2023-05-07T01:44:26;2.43;;;1.50;;
23728;SDS011;12045;60.214;24.724;2023-05-07T01:46:54;3.10;;;1.50;;
23728;SDS011;12045;60.214;24.724;2023-05-07T01:49:22;2.67;;;1.57;;
23728;SDS011;12045;60.214;24.724;2023-05-07T01:51:49;1.90;;;1.67;;
23728;SDS011;12045;60.214;24.724;2023-05-07T01:54:17;2.20;;;1.53;;
23728;SDS011;12045;60.214;24.724;2023-05-07T01:56:45;1.60;;;1.50;;
23728;SDS011;12045;60.214;24.724;2023-05-07T01:59:14;3.17;;;1.50;;
23728;SDS011;12045;60.214;24.724;2023-05-07T02:01:42;2.87;;;1.50;;
23728;SDS011;12045;60.214;24.724;2023-05-07T02:04:09;1.93;;;1.50;;
23728;SDS011;12045;60.214;24.724;2023-05-07T02:06:37;2.97;;;1.43;;
23728;SDS011;12045;60.214;24.724;2023-05-07T02:09:04;4.43;;;1.60;;
23728;SDS011;12045;60.214;24.724;2023-05-07T02:11:32;6.20;;;2.10;;
23728;SDS011;12045;60.214;24.724;2023-05-07T02:13:59;2.60;;;1.43;;
23728;SDS011;12045;60.214;24.724;2023-05-07T02:16:27;2.10;;;1.50;;
23728;SDS011;12045;60.214;24.724;2023-05-07T02:18:54;7.73;;;1.63;;
23728;SDS011;12045;60.214;24.724;2023-05-07T02:21:22;2.37;;;1.80;;
23728;SDS011;12045;60.214;24.724;2023-05-07T02:23:49;3.33;;;1.83;;
23728;SDS011;12045;60.214;24.724;2023-05-07T02:26:17;3.17;;;1.80;;
23728;SDS011;12045;60.214;24.724;2023-05-07T02:28:45;3.17;;;1.73;;
23728;SDS011;12045;60.214;24.724;2023-05-07T02:31:12;3.50;;;1.87;;
23728;SDS011;12045;60.214;24.724;2023-05-07T02:33:40;5.80;;;1.90;;
23728;SDS011;12045;60.214;24.724;2023-05-07T02:36:08;1.90;;;1.67;;
23728;SDS011;12045;60.214;24.724;2023-05-07T02:38:36;1.90;;;1.67;;
23728;SDS011;12045;60.214;24.724;2023-05-07T02:41:05;1.73;;;1.53;;
23728;SDS011;12045;60.214;24.724;2023-05-07T02:43:32;1.73;;;1.50;;
23728;SDS011;12045;60.214;24.724;2023-05-07T02:46:06;1.53;;;1.40;;
23728;SDS011;12045;60.214;24.724;2023-05-07T02:48:35;2.07;;;1.67;;
23728;SDS011;12045;60.214;24.724;2023-05-07T02:51:03;2.10;;;1.70;;
23728;SDS011;12045;60.214;24.724;2023-05-07T02:53:32;1.90;;;1.50;;
23728;SDS011;12045;60.214;24.724;2023-05-07T02:56:00;2.60;;;1.50;;
23728;SDS011;12045;60.214;24.724;2023-05-07T02:58:28;4.10;;;2.00;;
23728;SDS011;12045;60.214;24.724;2023-05-07T03:00:55;2.33;;;1.67;;
23728;SDS011;12045;60.214;24.724;2023-05-07T03:03:22;2.63;;;1.63;;
23728;SDS011;12045;60.214;24.724;2023-05-07T03:05:50;2.33;;;1.47;;
23728;SDS011;12045;60.214;24.724;2023-05-07T03:08:17;1.90;;;1.60;;
23728;SDS011;12045;60.214;24.724;2023-05-07T03:10:45;2.50;;;1.40;;
23728;SDS011;12045;60.214;24.724;2023-05-07T03:13:13;1.90;;;1.60;;
23728;SDS011;12045;60.214;24.724;2023-05-07T03:15:41;1.70;;;1.60;;
23728;SDS011;12045;60.214;24.724;2023-05-07T03:18:08;5.73;;;1.90;;
23728;SDS011;12045;60.214;24.724;2023-05-07T03:20:36;2.63;;;1.70;;
23728;SDS011;12045;60.214;24.724;2023-05-07T03:23:04;3.23;;;1.90;;
23728;SDS011;12045;60.214;24.724;2023-05-07T03:25:31;4.43;;;1.60;;
23728;SDS011;12045;60.214;24.724;2023-05-07T03:27:59;2.67;;;1.63;;
23728;SDS011;12045;60.214;24.724;2023-05-07T03:30:26;2.30;;;1.83;;
23728;SDS011;12045;60.214;24.724;2023-05-07T03:32:54;1.87;;;1.60;;
23728;SDS011;12045;60.214;24.724;2023-05-07T03:35:22;3.27;;;1.60;;
23728;SDS011;12045;60.214;24.724;2023-05-07T03:37:52;2.83;;;1.60;;
23728;SDS011;12045;60.214;24.724;2023-05-07T03:40:19;3.90;;;1.67;;
23728;SDS011;12045;60.214;24.724;2023-05-07T03:42:47;4.13;;;1.50;;
23728;SDS011;12045;60.214;24.724;2023-05-07T03:45:15;2.17;;;1.47;;
23728;SDS011;12045;60.214;24.724;2023-05-07T03:47:42;2.03;;;1.63;;
23728;SDS011;12045;60.214;24.724;2023-05-07T03:50:10;3.27;;;1.57;;
23728;SDS011;12045;60.214;24.724;2023-05-07T03:52:38;4.20;;;1.70;;
23728;SDS011;12045;60.214;24.724;2023-05-07T03:55:05;2.42;;;1.70;;
23728;SDS011;12045;60.214;24.724;2023-05-07T03:57:34;3.88;;;1.92;;
23728;SDS011;12045;60.214;24.724;2023-05-07T04:00:02;2.70;;;1.88;;
23728;SDS011;12045;60.214;24.724;2023-05-07T04:02:31;2.00;;;1.50;;
23728;SDS011;12045;60.214;24.724;2023-05-07T04:04:59;1.77;;;1.35;;
23728;SDS011;12045;60.214;24.724;2023-05-07T04:07:27;1.83;;;1.50;;
23728;SDS011;12045;60.214;24.724;2023-05-07T04:09:55;3.47;;;1.58;;
23728;SDS011;12045;60.214;24.724;2023-05-07T04:12:22;2.50;;;1.67;;
23728;SDS011;12045;60.214;24.724;2023-05-07T04:14:49;2.28;;;1.80;;
23728;SDS011;12045;60.214;24.724;2023-05-07T04:17:17;2.53;;;1.80;;
23728;SDS011;12045;60.214;24.724;2023-05-07T04:19:44;3.58;;;2.10;;
23728;SDS011;12045;60.214;24.724;2023-05-07T04:22:12;3.88;;;1.92;;
23728;SDS011;12045;60.214;24.724;2023-05-07T04:24:40;3.97;;;2.13;;
23728;SDS011;12045;60.214;24.724;2023-05-07T04:27:07;4.22;;;1.80;;
23728;SDS011;12045;60.214;24.724;2023-05-07T04:29:34;8.50;;;1.88;;
23728;SDS011;12045;60.214;24.724;2023-05-07T04:32:02;3.58;;;1.75;;
23728;SDS011;12045;60.214;24.724;2023-05-07T04:34:29;1.90;;;1.70;;
23728;SDS011;12045;60.214;24.724;2023-05-07T04:36:58;3.78;;;1.70;;
23728;SDS011;12045;60.214;24.724;2023-05-07T04:39:26;1.58;;;1.48;;
23728;SDS011;12045;60.214;24.724;2023-05-07T04:41:53;3.97;;;1.75;;
23728;SDS011;12045;60.214;24.724;2023-05-07T04:44:21;1.63;;;1.50;;
23728;SDS011;12045;60.214;24.724;2023-05-07T04:46:49;2.33;;;1.52;;
23728;SDS011;12045;60.214;24.724;2023-05-07T04:49:16;3.00;;;1.40;;
23728;SDS011;12045;60.214;24.724;2023-05-07T04:51:44;1.75;;;1.38;;
23728;SDS011;12045;60.214;24.724;2023-05-07T04:54:11;2.13;;;1.40;;
23728;SDS011;12045;60.214;24.724;2023-05-07T04:56:38;2.50;;;1.40;;
23728;SDS011;12045;60.214;24.724;2023-05-07T04:59:06;1.80;;;1.45;;
23728;SDS011;12045;60.214;24.724;2023-05-07T05:01:33;3.10;;;1.83;;
23728;SDS011;12045;60.214;24.724;2023-05-07T05:04:01;2.60;;;1.80;;
23728;SDS011;12045;60.214;24.724;2023-05-07T05:06:29;2.35;;;1.60;;
23728;SDS011;12045;60.214;24.724;2023-05-07T05:08:57;2.38;;;1.90;;
23728;SDS011;12045;60.214;24.724;2023-05-07T05:11:24;2.70;;;1.80;;
23728;SDS011;12045;60.214;24.724;2023-05-07T05:13:52;2.60;;;1.60;;
23728;SDS011;12045;60.214;24.724;2023-05-07T05:16:19;2.22;;;1.63;;
23728;SDS011;12045;60.214;24.724;2023-05-07T05:18:46;2.67;;;1.50;;
23728;SDS011;12045;60.214;24.724;2023-05-07T05:21:14;2.33;;;1.77;;
23728;SDS011;12045;60.214;24.724;2023-05-07T05:23:41;1.73;;;1.48;;
23728;SDS011;12045;60.214;24.724;2023-05-07T05:26:09;1.50;;;1.40;;
23728;SDS011;12045;60.214;24.724;2023-05-07T05:28:36;1.55;;;1.45;;
23728;SDS011;12045;60.214;24.724;2023-05-07T05:31:04;1.40;;;1.30;;
23728;SDS011;12045;60.214;24.724;2023-05-07T05:33:32;2.13;;;0.98;;
23728;SDS011;12045;60.214;24.724;2023-05-07T05:35:59;1.92;;;1.60;;
23728;SDS011;12045;60.214;24.724;2023-05-07T05:38:26;2.03;;;1.27;;
23728;SDS011;12045;60.214;24.724;2023-05-07T05:40:54;1.85;;;1.20;;
23728;SDS011;12045;60.214;24.724;2023-05-07T05:43:22;1.58;;;1.48;;
23728;SDS011;12045;60.214;24.724;2023-05-07T05:45:50;2.00;;;1.40;;
23728;SDS011;12045;60.214;24.724;2023-05-07T05:48:17;1.40;;;1.30;;
23728;SDS011;12045;60.214;24.724;2023-05-07T05:50:44;2.42;;;1.40;;
23728;SDS011;12045;60.214;24.724;2023-05-07T05:53:12;1.65;;;1.20;;
23728;SDS011;12045;60.214;24.724;2023-05-07T05:55:39;1.20;;;1.10;;
23728;SDS011;12045;60.214;24.724;2023-05-07T05:58:08;1.55;;;1.20;;
23728;SDS011;12045;60.214;24.724;2023-05-07T06:00:36;1.67;;;1.30;;
23728;SDS011;12045;60.214;24.724;2023-05-07T06:03:04;1.45;;;1.10;;
23728;SDS011;12045;60.214;24.724;2023-05-07T06:05:32;3.15;;;1.30;;
23728;SDS011;12045;60.214;24.724;2023-05-07T06:07:59;1.73;;;0.80;;
23728;SDS011;12045;60.214;24.724;2023-05-07T06:10:26;1.27;;;1.17;;
23728;SDS011;12045;60.214;24.724;2023-05-07T06:12:54;1.73;;;1.13;;
23728;SDS011;12045;60.214;24.724;2023-05-07T06:15:21;1.30;;;1.20;;
23728;SDS011;12045;60.214;24.724;2023-05-07T06:17:49;3.72;;;1.30;;
23728;SDS011;12045;60.214;24.724;2023-05-07T06:20:16;1.92;;;1.23;;
23728;SDS011;12045;60.214;24.724;2023-05-07T06:22:44;1.77;;;1.15;;
23728;SDS011;12045;60.214;24.724;2023-05-07T06:25:11;1.70;;;1.17;;
23728;SDS011;12045;60.214;24.724;2023-05-07T06:27:39;3.80;;;1.33;;
23728;SDS011;12045;60.214;24.724;2023-05-07T06:30:07;3.70;;;1.35;;
23728;SDS011;12045;60.214;24.724;2023-05-07T06:32:36;2.13;;;1.23;;
23728;SDS011;12045;60.214;24.724;2023-05-07T06:35:03;2.92;;;1.20;;
23728;SDS011;12045;60.214;24.724;2023-05-07T06:37:31;2.88;;;1.30;;
23728;SDS011;12045;60.214;24.724;2023-05-07T06:39:59;1.20;;;1.10;;
23728;SDS011;12045;60.214;24.724;2023-05-07T06:42:26;1.60;;;1.05;;
23728;SDS011;12045;60.214;24.724;2023-05-07T06:44:54;1.10;;;1.00;;
23728;SDS011;12045;60.214;24.724;2023-05-07T06:47:21;0.95;;;0.93;;
23728;SDS011;12045;60.214;24.724;2023-05-07T06:49:50;3.00;;;1.20;;
23728;SDS011;12045;60.214;24.724;2023-05-07T06:52:17;1.17;;;1.05;;
23728;SDS011;12045;60.214;24.724;2023-05-07T06:54:46;1.10;;;0.95;;
23728;SDS011;12045;60.214;24.724;2023-05-07T06:57:13;1.40;;;1.15;;
23728;SDS011;12045;60.214;24.724;2023-05-07T06:59:41;1.17;;;1.08;;
23728;SDS011;12045;60.214;24.724;2023-05-07T07:02:08;1.58;;;1.10;;
23728;SDS011;12045;60.214;24.724;2023-05-07T07:04:35;1.70;;;0.90;;
23728;SDS011;12045;60.214;24.724;2023-05-07T07:07:05;1.10;;;1.00;;
23728;SDS011;12045;60.214;24.724;2023-05-07T07:09:33;1.42;;;1.15;;
23728;SDS011;12045;60.214;24.724;2023-05-07T07:12:00;1.10;;;1.00;;
23728;SDS011;12045;60.214;24.724;2023-05-07T07:14:28;1.58;;;1.30;;
23728;SDS011;12045;60.214;24.724;2023-05-07T07:16:55;2.65;;;0.85;;
23728;SDS011;12045;60.214;24.724;2023-05-07T07:19:23;0.90;;;0.90;;
23728;SDS011;12045;60.214;24.724;2023-05-07T07:21:50;1.40;;;1.10;;
23728;SDS011;12045;60.214;24.724;2023-05-07T07:24:18;3.03;;;0.90;;
23728;SDS011;12045;60.214;24.724;2023-05-07T07:26:48;1.13;;;0.70;;
23728;SDS011;12045;60.214;24.724;2023-05-07T07:29:15;1.88;;;1.00;;
23728;SDS011;12045;60.214;24.724;2023-05-07T07:31:43;1.52;;;1.00;;
23728;SDS011;12045;60.214;24.724;2023-05-07T07:34:10;2.35;;;1.00;;
23728;SDS011;12045;60.214;24.724;2023-05-07T07:36:38;0.90;;;0.90;;
23728;SDS011;12045;60.214;24.724;2023-05-07T07:39:12;1.13;;;0.85;;
23728;SDS011;12045;60.214;24.724;2023-05-07T07:41:40;1.05;;;0.95;;
23728;SDS011;12045;60.214;24.724;2023-05-07T07:44:07;2.47;;;0.70;;
23728;SDS011;12045;60.214;24.724;2023-05-07T07:46:35;1.15;;;0.88;;
23728;SDS011;12045;60.214;24.724;2023-05-07T07:49:03;1.45;;;0.98;;
23728;SDS011;12045;60.214;24.724;2023-05-07T07:51:30;0.77;;;0.70;;
23728;SDS011;12045;60.214;24.724;2023-05-07T07:53:58;1.70;;;1.02;;
23728;SDS011;12045;60.214;24.724;2023-05-07T07:56:25;1.92;;;1.00;;
23728;SDS011;12045;60.214;24.724;2023-05-07T07:58:53;2.55;;;0.90;;
23728;SDS011;12045;60.214;24.724;2023-05-07T08:01:20;1.33;;;1.10;;
23728;SDS011;12045;60.214;24.724;2023-05-07T08:03:50;2.58;;;1.70;;
23728;SDS011;12045;60.214;24.724;2023-05-07T08:06:18;1.17;;;1.00;;
23728;SDS011;12045;60.214;24.724;2023-05-07T08:08:45;2.28;;;0.98;;
23728;SDS011;12045;60.214;24.724;2023-05-07T08:11:13;1.35;;;1.00;;
23728;SDS011;12045;60.214;24.724;2023-05-07T08:13:41;2.40;;;1.02;;
23728;SDS011;12045;60.214;24.724;2023-05-07T08:16:08;1.13;;;1.00;;
23728;SDS011;12045;60.214;24.724;2023-05-07T08:18:36;1.33;;;1.02;;
23728;SDS011;12045;60.214;24.724;2023-05-07T08:21:04;1.30;;;1.20;;
23728;SDS011;12045;60.214;24.724;2023-05-07T08:23:31;1.25;;;1.05;;
23728;SDS011;12045;60.214;24.724;2023-05-07T08:26:01;1.42;;;1.23;;
23728;SDS011;12045;60.214;24.724;2023-05-07T08:28:28;0.93;;;0.80;;
23728;SDS011;12045;60.214;24.724;2023-05-07T08:30:56;1.42;;;1.23;;
23728;SDS011;12045;60.214;24.724;2023-05-07T08:33:24;6.05;;;1.40;;
23728;SDS011;12045;60.214;24.724;2023-05-07T08:35:51;2.42;;;0.98;;
23728;SDS011;12045;60.214;24.724;2023-05-07T08:38:19;1.25;;;1.13;;
23728;SDS011;12045;60.214;24.724;2023-05-07T08:40:47;2.35;;;0.65;;
23728;SDS011;12045;60.214;24.724;2023-05-07T08:43:15;1.38;;;1.15;;
23728;SDS011;12045;60.214;24.724;2023-05-07T08:45:46;2.45;;;1.15;;
23728;SDS011;12045;60.214;24.724;2023-05-07T08:48:19;2.28;;;1.02;;
23728;SDS011;12045;60.214;24.724;2023-05-07T08:50:52;0.93;;;0.88;;
23728;SDS011;12045;60.214;24.724;2023-05-07T08:53:19;1.60;;;1.10;;
23728;SDS011;12045;60.214;24.724;2023-05-07T08:55:47;2.72;;;0.95;;
23728;SDS011;12045;60.214;24.724;2023-05-07T08:58:15;1.80;;;1.00;;
23728;SDS011;12045;60.214;24.724;2023-05-07T09:00:43;1.92;;;1.30;;
23728;SDS011;12045;60.214;24.724;2023-05-07T09:03:10;2.55;;;1.20;;
23728;SDS011;12045;60.214;24.724;2023-05-07T09:05:41;3.33;;;1.20;;
23728;SDS011;12045;60.214;24.724;2023-05-07T09:08:13;1.23;;;1.10;;
23728;SDS011;12045;60.214;24.724;2023-05-07T09:10:42;1.58;;;0.93;;
23728;SDS011;12045;60.214;24.724;2023-05-07T09:13:11;1.30;;;1.05;;
23728;SDS011;12045;60.214;24.724;2023-05-07T09:15:41;3.45;;;1.25;;
23728;SDS011;12045;60.214;24.724;2023-05-07T09:18:08;0.90;;;0.80;;
23728;SDS011;12045;60.214;24.724;2023-05-07T09:20:36;1.33;;;1.17;;
23728;SDS011;12045;60.214;24.724;2023-05-07T09:23:07;1.77;;;1.30;;
23728;SDS011;12045;60.214;24.724;2023-05-07T09:25:35;2.35;;;1.08;;
23728;SDS011;12045;60.214;24.724;2023-05-07T09:28:04;1.10;;;1.00;;
23728;SDS011;12045;60.214;24.724;2023-05-07T09:30:36;1.85;;;1.20;;
23728;SDS011;12045;60.214;24.724;2023-05-07T09:33:04;2.10;;;1.40;;
23728;SDS011;12045;60.214;24.724;2023-05-07T09:35:31;3.13;;;1.30;;
23728;SDS011;12045;60.214;24.724;2023-05-07T09:37:59;1.48;;;0.95;;
23728;SDS011;12045;60.214;24.724;2023-05-07T09:40:30;1.55;;;1.05;;
23728;SDS011;12045;60.214;24.724;2023-05-07T09:43:08;1.42;;;1.20;;
23728;SDS011;12045;60.214;24.724;2023-05-07T09:45:38;1.10;;;0.80;;
23728;SDS011;12045;60.214;24.724;2023-05-07T09:48:05;2.60;;;1.27;;
23728;SDS011;12045;60.214;24.724;2023-05-07T09:50:40;1.45;;;1.20;;
23728;SDS011;12045;60.214;24.724;2023-05-07T09:53:15;2.88;;;1.17;;
23728;SDS011;12045;60.214;24.724;2023-05-07T09:55:44;2.05;;;1.10;;
23728;SDS011;12045;60.214;24.724;2023-05-07T09:58:12;1.58;;;1.20;;
23728;SDS011;12045;60.214;24.724;2023-05-07T10:00:43;2.70;;;1.15;;
23728;SDS011;12045;60.214;24.724;2023-05-07T10:03:11;1.30;;;1.00;;
23728;SDS011;12045;60.214;24.724;2023-05-07T10:05:39;1.30;;;1.08;;
23728;SDS011;12045;60.214;24.724;2023-05-07T10:08:07;1.17;;;0.90;;
23728;SDS011;12045;60.214;24.724;2023-05-07T10:10:36;1.48;;;1.38;;
23728;SDS011;12045;60.214;24.724;2023-05-07T10:13:04;2.03;;;1.00;;
23728;SDS011;12045;60.214;24.724;2023-05-07T10:15:37;1.83;;;1.00;;
23728;SDS011;12045;60.214;24.724;2023-05-07T10:18:06;3.28;;;1.70;;
23728;SDS011;12045;60.214;24.724;2023-05-07T10:20:34;2.95;;;1.20;;
23728;SDS011;12045;60.214;24.724;2023-05-07T10:23:04;2.80;;;1.80;;
23728;SDS011;12045;60.214;24.724;2023-05-07T10:25:32;1.30;;;1.15;;
23728;SDS011;12045;60.214;24.724;2023-05-07T10:28:03;1.20;;;1.10;;
23728;SDS011;12045;60.214;24.724;2023-05-07T10:33:05;2.20;;;1.40;;
23728;SDS011;12045;60.214;24.724;2023-05-07T10:35:37;1.63;;;1.20;;
23728;SDS011;12045;60.214;24.724;2023-05-07T10:38:07;1.73;;;1.20;;
23728;SDS011;12045;60.214;24.724;2023-05-07T10:40:35;2.72;;;1.25;;
23728;SDS011;12045;60.214;24.724;2023-05-07T10:43:03;2.53;;;1.10;;
23728;SDS011;12045;60.214;24.724;2023-05-07T10:45:36;2.53;;;1.10;;
23728;SDS011;12045;60.214;24.724;2023-05-07T10:50:44;1.80;;;1.35;;
23728;SDS011;12045;60.214;24.724;2023-05-07T10:55:46;1.15;;;1.00;;
23728;SDS011;12045;60.214;24.724;2023-05-07T11:01:01;1.02;;;0.93;;
23728;SDS011;12045;60.214;24.724;2023-05-07T11:03:29;1.30;;;1.20;;
23728;SDS011;12045;60.214;24.724;2023-05-07T11:06:13;1.13;;;1.10;;
23728;SDS011;12045;60.214;24.724;2023-05-07T11:08:55;1.83;;;1.15;;
23728;SDS011;12045;60.214;24.724;2023-05-07T11:17:09;1.60;;;1.27;;
23728;SDS011;12045;60.214;24.724;2023-05-07T11:19:47;1.83;;;1.35;;
23728;SDS011;12045;60.214;24.724;2023-05-07T11:25:03;3.83;;;1.20;;
23728;SDS011;12045;60.214;24.724;2023-05-07T11:27:32;2.13;;;1.10;;
23728;SDS011;12045;60.214;24.724;2023-05-07T11:30:00;1.83;;;1.10;;
23728;SDS011;12045;60.214;24.724;2023-05-07T11:32:29;1.85;;;1.15;;
23728;SDS011;12045;60.214;24.724;2023-05-07T11:34:58;1.35;;;1.20;;
23728;SDS011;12045;60.214;24.724;2023-05-07T11:37:27;1.73;;;1.20;;
23728;SDS011;12045;60.214;24.724;2023-05-07T11:40:07;4.43;;;1.30;;
23728;SDS011;12045;60.214;24.724;2023-05-07T11:42:36;1.27;;;1.10;;
23728;SDS011;12045;60.214;24.724;2023-05-07T11:45:05;1.20;;;1.10;;
23728;SDS011;12045;60.214;24.724;2023-05-07T11:47:34;3.78;;;1.40;;
23728;SDS011;12045;60.214;24.724;2023-05-07T11:50:05;2.38;;;1.10;;
23728;SDS011;12045;60.214;24.724;2023-05-07T11:52:34;1.70;;;1.23;;
23728;SDS011;12045;60.214;24.724;2023-05-07T11:55:02;2.05;;;1.20;;
23728;SDS011;12045;60.214;24.724;2023-05-07T11:57:33;1.20;;;1.10;;
23728;SDS011;12045;60.214;24.724;2023-05-07T12:00:02;1.15;;;1.02;;
23728;SDS011;12045;60.214;24.724;2023-05-07T12:02:31;2.50;;;1.27;;
23728;SDS011;12045;60.214;24.724;2023-05-07T12:05:00;3.28;;;1.33;;
23728;SDS011;12045;60.214;24.724;2023-05-07T12:07:27;1.50;;;1.10;;
23728;SDS011;12045;60.214;24.724;2023-05-07T12:09:55;3.25;;;1.35;;
23728;SDS011;12045;60.214;24.724;2023-05-07T12:12:22;1.08;;;0.88;;
23728;SDS011;12045;60.214;24.724;2023-05-07T12:14:50;0.65;;;0.65;;
23728;SDS011;12045;60.214;24.724;2023-05-07T12:17:17;2.28;;;1.20;;
23728;SDS011;12045;60.214;24.724;2023-05-07T12:19:46;1.40;;;1.20;;
23728;SDS011;12045;60.214;24.724;2023-05-07T12:22:17;1.15;;;0.93;;
23728;SDS011;12045;60.214;24.724;2023-05-07T12:24:50;4.38;;;1.20;;
23728;SDS011;12045;60.214;24.724;2023-05-07T12:27:25;1.85;;;1.10;;
23728;SDS011;12045;60.214;24.724;2023-05-07T12:29:52;1.65;;;1.05;;
23728;SDS011;12045;60.214;24.724;2023-05-07T12:32:21;1.77;;;1.10;;
23728;SDS011;12045;60.214;24.724;2023-05-07T12:34:49;2.65;;;1.30;;
23728;SDS011;12045;60.214;24.724;2023-05-07T12:37:22;0.50;;;0.50;;
23728;SDS011;12045;60.214;24.724;2023-05-07T12:40:09;1.25;;;1.08;;
23728;SDS011;12045;60.214;24.724;2023-05-07T12:42:39;1.65;;;1.23;;
23728;SDS011;12045;60.214;24.724;2023-05-07T12:45:08;1.27;;;1.08;;
23728;SDS011;12045;60.214;24.724;2023-05-07T12:47:44;2.90;;;1.23;;
23728;SDS011;12045;60.214;24.724;2023-05-07T12:50:13;1.52;;;1.27;;
23728;SDS011;12045;60.214;24.724;2023-05-07T12:52:45;3.72;;;1.20;;
23728;SDS011;12045;60.214;24.724;2023-05-07T12:55:15;2.28;;;1.20;;
23728;SDS011;12045;60.214;24.724;2023-05-07T12:57:45;1.20;;;1.10;;
23728;SDS011;12045;60.214;24.724;2023-05-07T13:00:15;3.00;;;1.15;;
23728;SDS011;12045;60.214;24.724;2023-05-07T13:02:43;1.40;;;1.20;;
23728;SDS011;12045;60.214;24.724;2023-05-07T13:05:13;3.72;;;1.13;;
23728;SDS011;12045;60.214;24.724;2023-05-07T13:07:41;2.10;;;0.90;;
23728;SDS011;12045;60.214;24.724;2023-05-07T13:10:21;2.10;;;1.05;;
23728;SDS011;12045;60.214;24.724;2023-05-07T13:12:53;2.97;;;1.30;;
23728;SDS011;12045;60.214;24.724;2023-05-07T13:15:20;1.40;;;1.10;;
23728;SDS011;12045;60.214;24.724;2023-05-07T13:17:48;1.20;;;1.10;;
23728;SDS011;12045;60.214;24.724;2023-05-07T13:20:16;2.25;;;1.10;;
23728;SDS011;12045;60.214;24.724;2023-05-07T13:22:43;2.08;;;1.05;;
23728;SDS011;12045;60.214;24.724;2023-05-07T13:25:11;1.13;;;0.80;;
23728;SDS011;12045;60.214;24.724;2023-05-07T13:27:39;0.90;;;0.90;;
23728;SDS011;12045;60.214;24.724;2023-05-07T13:30:06;1.30;;;1.10;;
23728;SDS011;12045;60.214;24.724;2023-05-07T13:32:34;2.05;;;1.15;;
23728;SDS011;12045;60.214;24.724;2023-05-07T13:35:03;1.70;;;1.17;;
23728;SDS011;12045;60.214;24.724;2023-05-07T13:37:31;2.50;;;1.20;;
23728;SDS011;12045;60.214;24.724;2023-05-07T13:39:58;1.67;;;1.15;;
23728;SDS011;12045;60.214;24.724;2023-05-07T13:42:26;2.83;;;1.00;;
23728;SDS011;12045;60.214;24.724;2023-05-07T13:44:53;2.10;;;1.20;;
23728;SDS011;12045;60.214;24.724;2023-05-07T13:47:21;2.65;;;1.17;;
23728;SDS011;12045;60.214;24.724;2023-05-07T13:49:50;1.73;;;1.17;;
23728;SDS011;12045;60.214;24.724;2023-05-07T13:52:17;1.98;;;1.00;;
23728;SDS011;12045;60.214;24.724;2023-05-07T13:54:47;1.42;;;1.20;;
23728;SDS011;12045;60.214;24.724;2023-05-07T13:57:15;1.15;;;1.02;;
23728;SDS011;12045;60.214;24.724;2023-05-07T13:59:43;1.77;;;1.10;;
23728;SDS011;12045;60.214;24.724;2023-05-07T14:02:11;3.75;;;1.58;;
23728;SDS011;12045;60.214;24.724;2023-05-07T14:04:38;3.20;;;1.27;;
23728;SDS011;12045;60.214;24.724;2023-05-07T14:07:05;1.27;;;1.02;;
23728;SDS011;12045;60.214;24.724;2023-05-07T14:09:33;2.88;;;1.10;;
23728;SDS011;12045;60.214;24.724;2023-05-07T14:12:01;2.50;;;1.00;;
23728;SDS011;12045;60.214;24.724;2023-05-07T14:14:28;2.60;;;1.20;;
23728;SDS011;12045;60.214;24.724;2023-05-07T14:16:56;1.65;;;1.10;;
23728;SDS011;12045;60.214;24.724;2023-05-07T14:19:24;1.48;;;1.10;;
23728;SDS011;12045;60.214;24.724;2023-05-07T14:21:51;1.20;;;1.10;;
23728;SDS011;12045;60.214;24.724;2023-05-07T14:24:19;3.40;;;1.10;;
23728;SDS011;12045;60.214;24.724;2023-05-07T14:27:03;3.08;;;1.10;;
23728;SDS011;12045;60.214;24.724;2023-05-07T14:29:31;2.10;;;1.27;;
23728;SDS011;12045;60.214;24.724;2023-05-07T14:31:58;2.30;;;1.20;;
23728;SDS011;12045;60.214;24.724;2023-05-07T14:34:26;2.28;;;1.08;;
23728;SDS011;12045;60.214;24.724;2023-05-07T14:36:54;1.00;;;0.90;;
23728;SDS011;12045;60.214;24.724;2023-05-07T14:39:22;1.20;;;1.10;;
23728;SDS011;12045;60.214;24.724;2023-05-07T14:41:50;1.60;;;1.23;;
23728;SDS011;12045;60.214;24.724;2023-05-07T14:44:17;1.80;;;1.20;;
23728;SDS011;12045;60.214;24.724;2023-05-07T14:46:45;3.95;;;1.42;;
23728;SDS011;12045;60.214;24.724;2023-05-07T14:49:13;2.33;;;1.20;;
23728;SDS011;12045;60.214;24.724;2023-05-07T14:51:44;1.73;;;1.00;;
23728;SDS011;12045;60.214;24.724;2023-05-07T14:54:12;1.73;;;0.90;;
23728;SDS011;12045;60.214;24.724;2023-05-07T14:56:41;1.58;;;0.95;;
23728;SDS011;12045;60.214;24.724;2023-05-07T14:59:09;2.22;;;1.23;;